createdAt,value
2022-10-08T00:01:12.028Z,9.55
2022-10-08T00:03:43.234Z,11.20
2022-10-08T00:06:15.415Z,14.25
2022-10-08T00:08:46.497Z,23.42
2022-10-08T00:11:16.433Z,15.75
2022-10-08T00:13:45.569Z,15.35
2022-10-08T00:16:13.862Z,14.20
2022-10-08T00:18:41.985Z,14.63
2022-10-08T00:21:14.374Z,11.32
2022-10-08T00:23:42.016Z,12.25
2022-10-08T00:26:09.424Z,8.43
2022-10-08T00:28:37.750Z,12.63
2022-10-08T00:31:09.440Z,11.18
2022-10-08T00:33:36.300Z,16.40
2022-10-08T00:36:09.244Z,9.57
2022-10-08T00:38:36.199Z,9.85
2022-10-08T00:41:05.943Z,12.70
2022-10-08T00:43:44.056Z,11.00
2022-10-08T00:46:37.226Z,12.02
2022-10-08T00:49:03.918Z,12.25
2022-10-08T00:51:32.233Z,10.35
2022-10-08T00:54:03.952Z,11.32
2022-10-08T00:56:33.677Z,11.07
2022-10-08T00:59:00.364Z,9.40
2022-10-08T01:01:27.087Z,8.50
2022-10-08T01:03:54.819Z,8.80
2022-10-08T01:06:30.125Z,10.90
2022-10-08T01:09:19.733Z,10.20
2022-10-08T01:12:18.140Z,9.90
2022-10-08T01:14:52.894Z,10.93
2022-10-08T01:17:31.334Z,12.32
2022-10-08T01:20:10.853Z,10.40
2022-10-08T01:22:57.591Z,10.00
2022-10-08T01:25:46.505Z,13.63
2022-10-08T01:28:32.014Z,11.25
2022-10-08T01:31:08.059Z,10.60
2022-10-08T01:33:56.111Z,12.07
2022-10-08T01:36:24.242Z,8.98
2022-10-08T01:38:59.342Z,9.27
2022-10-08T01:41:29.381Z,8.82
2022-10-08T01:44:12.992Z,7.40
2022-10-08T01:46:42.808Z,6.75
2022-10-08T01:49:17.347Z,9.38
2022-10-08T01:51:53.653Z,9.90
2022-10-08T01:54:22.416Z,13.27
2022-10-08T01:56:50.616Z,9.68
2022-10-08T01:59:45.039Z,9.77
2022-10-08T02:02:23.229Z,10.07
2022-10-08T02:04:51.700Z,10.60
2022-10-08T02:07:21.489Z,9.75
2022-10-08T02:09:53.997Z,11.57
2022-10-08T02:12:24.670Z,8.70
2022-10-08T02:14:54.210Z,10.38
2022-10-08T02:17:43.740Z,6.53
2022-10-08T02:20:22.443Z,11.88
2022-10-08T02:23:13.268Z,8.60
2022-10-08T02:25:57.056Z,12.60
2022-10-08T02:28:44.155Z,7.60
2022-10-08T02:31:17.679Z,12.48
2022-10-08T02:33:50.307Z,8.70
2022-10-08T02:36:23.485Z,9.10
2022-10-08T02:38:57.522Z,7.60
2022-10-08T02:41:30.811Z,5.65
2022-10-08T02:44:03.004Z,8.90
2022-10-08T02:46:33.658Z,7.78
2022-10-08T02:49:15.654Z,8.25
2022-10-08T02:51:49.412Z,8.45
2022-10-08T02:54:20.871Z,8.45
2022-10-08T02:56:59.399Z,7.10
2022-10-08T02:59:26.537Z,9.30
2022-10-08T03:02:03.832Z,6.43
2022-10-08T03:04:36.272Z,7.45
2022-10-08T03:07:03.585Z,11.70
2022-10-08T03:09:38.901Z,11.35
2022-10-08T03:12:06.805Z,8.20
2022-10-08T03:14:37.451Z,6.65
2022-10-08T03:17:07.606Z,5.53
2022-10-08T03:19:34.928Z,7.80
2022-10-08T03:22:03.079Z,5.45
2022-10-08T03:24:29.747Z,9.10
2022-10-08T03:26:56.423Z,6.32
2022-10-08T03:29:23.027Z,6.13
2022-10-08T03:31:50.336Z,5.78
2022-10-08T03:34:17.064Z,4.43
2022-10-08T03:36:43.783Z,6.88
2022-10-08T03:39:13.708Z,7.90
2022-10-08T03:41:40.421Z,6.28
2022-10-08T03:44:12.112Z,6.13
2022-10-08T03:46:38.895Z,8.88
2022-10-08T03:49:05.608Z,6.72
2022-10-08T03:51:32.492Z,4.25
2022-10-08T03:53:59.169Z,4.93
2022-10-08T03:56:26.161Z,5.45
2022-10-08T03:58:55.027Z,6.97
2022-10-08T04:01:22.303Z,5.10
2022-10-08T04:03:49.198Z,4.47
2022-10-08T04:06:16.186Z,7.22
2022-10-08T04:08:43.170Z,5.43
2022-10-08T04:11:12.604Z,7.43
2022-10-08T04:13:39.622Z,7.15
2022-10-08T04:16:10.559Z,5.90
2022-10-08T04:18:37.286Z,6.35
2022-10-08T04:21:09.670Z,5.28
2022-10-08T04:23:38.665Z,6.35
2022-10-08T04:26:06.328Z,5.57
2022-10-08T04:28:38.650Z,7.53
2022-10-08T04:31:11.448Z,5.32
2022-10-08T04:33:38.555Z,4.25
2022-10-08T04:36:24.640Z,5.10
2022-10-08T04:38:51.471Z,7.18
2022-10-08T04:41:21.604Z,5.38
2022-10-08T04:43:48.807Z,6.70
2022-10-08T04:46:18.173Z,6.65
2022-10-08T04:48:51.088Z,8.05
2022-10-08T04:51:19.431Z,4.18
2022-10-08T04:53:46.519Z,7.00
2022-10-08T04:56:17.189Z,6.25
2022-10-08T04:58:44.510Z,7.07
2022-10-08T05:01:14.508Z,6.80
2022-10-08T05:03:44.265Z,3.92
2022-10-08T05:06:11.760Z,4.53
2022-10-08T05:08:39.248Z,6.28
2022-10-08T05:11:06.057Z,5.53
2022-10-08T05:13:32.874Z,4.57
2022-10-08T05:16:07.603Z,5.55
2022-10-08T05:18:34.858Z,8.27
2022-10-08T05:21:09.821Z,4.60
2022-10-08T05:23:36.709Z,5.22
2022-10-08T05:26:31.811Z,6.43
2022-10-08T05:29:09.561Z,6.50
2022-10-08T05:31:37.120Z,7.80
2022-10-08T05:34:04.300Z,7.18
2022-10-08T05:36:33.296Z,7.72
2022-10-08T05:39:02.921Z,4.50
2022-10-08T05:41:31.952Z,8.15
2022-10-08T05:44:02.918Z,5.20
2022-10-08T05:46:32.322Z,7.53
2022-10-08T05:49:01.238Z,5.13
2022-10-08T05:51:28.611Z,5.47
2022-10-08T05:53:59.104Z,7.05
2022-10-08T05:56:27.481Z,5.53
2022-10-08T05:58:54.599Z,4.88
2022-10-08T06:01:24.196Z,5.82
2022-10-08T06:03:56.464Z,10.30
2022-10-08T06:06:24.684Z,3.22
2022-10-08T06:08:58.915Z,8.35
2022-10-08T06:11:30.203Z,5.63
2022-10-08T06:13:59.310Z,6.85
2022-10-08T06:16:27.273Z,5.15
2022-10-08T06:18:54.394Z,10.20
2022-10-08T06:21:23.542Z,4.85
2022-10-08T06:23:53.266Z,6.38
2022-10-08T06:26:22.109Z,8.75
2022-10-08T06:28:49.766Z,6.35
2022-10-08T06:31:17.503Z,8.13
2022-10-08T06:33:44.598Z,6.93
2022-10-08T06:36:23.924Z,6.03
2022-10-08T06:38:55.904Z,6.88
2022-10-08T06:41:23.036Z,4.28
2022-10-08T06:43:49.932Z,7.63
2022-10-08T06:46:18.343Z,6.05
2022-10-08T06:48:45.508Z,8.40
2022-10-08T06:51:14.252Z,7.20
2022-10-08T06:53:42.348Z,6.68
2022-10-08T06:56:14.620Z,6.68
2022-10-08T06:58:42.166Z,5.05
2022-10-08T07:01:15.435Z,4.18
2022-10-08T07:03:42.614Z,5.72
2022-10-08T07:06:12.058Z,6.30
2022-10-08T07:08:39.167Z,8.75
2022-10-08T07:11:08.466Z,8.02
2022-10-08T07:13:35.585Z,7.45
2022-10-08T07:16:07.466Z,4.32
2022-10-08T07:18:35.456Z,7.70
2022-10-08T07:21:02.987Z,7.38
2022-10-08T07:23:29.802Z,7.78
2022-10-08T07:26:10.019Z,8.57
2022-10-08T07:28:39.310Z,5.35
2022-10-08T07:31:14.388Z,10.75
2022-10-08T07:33:41.665Z,4.80
2022-10-08T07:36:12.400Z,4.05
2022-10-08T07:38:40.346Z,9.30
2022-10-08T07:41:08.569Z,4.60
2022-10-08T07:43:36.073Z,5.65
2022-10-08T07:46:05.192Z,5.03
2022-10-08T07:48:34.247Z,4.93
2022-10-08T07:51:15.382Z,8.45
2022-10-08T07:53:42.676Z,5.18
2022-10-08T07:56:10.607Z,5.53
2022-10-08T07:58:37.938Z,5.30
2022-10-08T08:01:08.607Z,5.78
2022-10-08T08:03:35.712Z,4.28
2022-10-08T08:06:09.159Z,5.35
2022-10-08T08:08:37.514Z,5.70
2022-10-08T08:11:05.840Z,6.13
2022-10-08T08:13:37.062Z,7.15
2022-10-08T08:16:27.232Z,4.22
2022-10-08T08:18:56.814Z,5.43
2022-10-08T08:21:26.323Z,8.35
2022-10-08T08:23:55.444Z,5.05
2022-10-08T08:26:25.046Z,4.75
2022-10-08T08:28:53.335Z,4.90
2022-10-08T08:31:23.975Z,4.45
2022-10-08T08:33:53.762Z,5.93
2022-10-08T08:36:24.041Z,4.15
2022-10-08T08:38:50.817Z,4.35
2022-10-08T08:41:29.528Z,4.80
2022-10-08T08:44:24.103Z,10.38
2022-10-08T08:46:58.839Z,14.48
2022-10-08T08:49:47.653Z,18.48
2022-10-08T08:52:21.043Z,20.30
2022-10-08T08:54:49.765Z,11.32
2022-10-08T08:57:42.022Z,11.70
2022-10-08T09:00:17.840Z,13.35
2022-10-08T09:03:06.358Z,8.65
2022-10-08T09:05:39.257Z,11.35
2022-10-08T09:08:24.027Z,10.80
2022-10-08T09:10:57.560Z,12.27
2022-10-08T09:13:37.052Z,9.18
2022-10-08T09:16:03.896Z,14.98
2022-10-08T09:18:30.616Z,10.55
2022-10-08T09:20:57.360Z,20.63
2022-10-08T09:23:25.889Z,11.70
2022-10-08T09:26:21.408Z,10.65
2022-10-08T09:28:59.274Z,13.55
2022-10-08T09:31:40.734Z,18.35
2022-10-08T09:34:10.603Z,13.63
2022-10-08T09:36:51.363Z,10.02
2022-10-08T09:39:27.427Z,17.75
2022-10-08T09:42:17.170Z,16.08
2022-10-08T09:44:45.741Z,11.10
2022-10-08T09:47:14.828Z,9.35
2022-10-08T09:49:41.876Z,15.30
2022-10-08T09:52:19.407Z,11.15
2022-10-08T09:54:49.698Z,8.85
2022-10-08T09:57:18.794Z,10.10
2022-10-08T09:59:58.087Z,15.13
2022-10-08T10:02:36.555Z,10.27
2022-10-08T10:05:07.830Z,10.93
2022-10-08T10:07:43.406Z,12.68
2022-10-08T10:10:38.573Z,9.95
2022-10-08T10:13:18.976Z,9.00
2022-10-08T10:15:51.188Z,11.27
2022-10-08T10:18:22.406Z,8.95
2022-10-08T10:21:03.088Z,11.18
2022-10-08T10:23:35.764Z,12.02
2022-10-08T10:26:16.764Z,11.48
2022-10-08T10:28:50.076Z,15.23
2022-10-08T10:31:23.718Z,13.23
2022-10-08T10:33:59.148Z,11.25
2022-10-08T10:36:47.830Z,11.75
2022-10-08T10:39:32.253Z,14.07
2022-10-08T10:42:12.695Z,9.18
2022-10-08T10:44:56.323Z,10.52
2022-10-08T10:47:30.971Z,7.78
2022-10-08T10:50:00.809Z,9.95
2022-10-08T10:52:53.569Z,10.50
2022-10-08T10:55:29.968Z,6.55
2022-10-08T10:58:03.690Z,6.40
2022-10-08T11:00:45.790Z,5.80
2022-10-08T11:05:50.331Z,7.10
2022-10-08T11:08:33.384Z,6.47
2022-10-08T11:11:32.939Z,4.57
2022-10-08T11:14:16.776Z,6.75
2022-10-08T11:16:47.834Z,3.50
2022-10-08T11:19:35.832Z,9.60
2022-10-08T11:22:17.482Z,6.35
2022-10-08T11:24:44.086Z,6.28
2022-10-08T11:27:43.169Z,4.47
2022-10-08T11:30:20.976Z,5.85
2022-10-08T11:32:53.931Z,4.47
2022-10-08T11:35:41.840Z,6.35
2022-10-08T11:38:18.764Z,8.10
2022-10-08T11:40:55.487Z,8.40
2022-10-08T11:43:22.079Z,6.13
2022-10-08T11:46:31.305Z,5.50
2022-10-08T11:49:16.517Z,7.80
2022-10-08T11:51:45.486Z,5.53
2022-10-08T11:54:38.501Z,9.77
2022-10-08T11:58:06.625Z,10.70
2022-10-08T12:01:03.754Z,6.28
2022-10-08T12:03:33.562Z,5.65
2022-10-08T12:06:14.330Z,5.57
2022-10-08T12:09:01.475Z,5.32
2022-10-08T12:11:39.730Z,6.45
2022-10-08T12:14:12.632Z,7.32
2022-10-08T12:17:04.962Z,4.43
2022-10-08T12:19:34.363Z,4.65
2022-10-08T12:22:02.918Z,5.10
2022-10-08T12:24:38.686Z,6.07
2022-10-08T12:27:17.703Z,5.32
2022-10-08T12:30:04.632Z,4.45
2022-10-08T12:32:38.666Z,4.68
2022-10-08T12:35:06.222Z,5.05
2022-10-08T12:37:44.973Z,5.30
2022-10-08T12:40:23.186Z,6.60
2022-10-08T12:42:54.257Z,10.80
2022-10-08T12:45:34.182Z,5.70
2022-10-08T12:48:34.813Z,5.10
2022-10-08T12:51:17.056Z,8.13
2022-10-08T12:53:47.804Z,8.63
2022-10-08T12:56:18.615Z,5.95
2022-10-08T12:58:47.399Z,11.52
2022-10-08T13:01:18.588Z,7.55
2022-10-08T13:03:45.297Z,5.90
2022-10-08T13:06:17.615Z,6.53
2022-10-08T13:08:44.933Z,4.68
2022-10-08T13:11:14.651Z,8.27
2022-10-08T13:13:41.789Z,7.38
2022-10-08T13:16:20.449Z,10.23
2022-10-08T13:18:53.639Z,11.90
2022-10-08T13:21:30.788Z,8.43
2022-10-08T13:23:58.729Z,7.65
2022-10-08T13:26:45.133Z,6.38
2022-10-08T13:29:23.977Z,6.60
2022-10-08T13:32:06.942Z,4.90
2022-10-08T13:34:39.760Z,4.70
2022-10-08T13:37:21.005Z,7.30
2022-10-08T13:40:10.705Z,6.30
2022-10-08T13:42:48.463Z,5.93
2022-10-08T13:45:24.267Z,6.63
2022-10-08T13:47:51.546Z,7.15
2022-10-08T13:50:19.161Z,6.07
2022-10-08T13:52:51.186Z,5.40
2022-10-08T13:55:29.565Z,6.10
2022-10-08T13:57:57.667Z,6.50
2022-10-08T14:00:24.627Z,6.45
2022-10-08T14:02:51.687Z,5.75
2022-10-08T14:05:19.630Z,3.50
2022-10-08T14:07:49.626Z,4.75
2022-10-08T14:10:18.857Z,3.25
2022-10-08T14:12:45.604Z,5.55
2022-10-08T14:15:13.965Z,6.32
2022-10-08T14:17:40.606Z,6.30
2022-10-08T14:20:07.872Z,5.07
2022-10-08T14:22:38.706Z,5.18
2022-10-08T14:25:16.822Z,5.83
2022-10-08T14:27:44.116Z,6.90
2022-10-08T14:30:12.192Z,5.07
2022-10-08T14:32:39.244Z,4.03
2022-10-08T14:35:09.213Z,3.08
2022-10-08T14:37:36.449Z,4.72
2022-10-08T14:40:05.437Z,5.10
2022-10-08T14:42:32.249Z,4.47
2022-10-08T14:44:58.887Z,6.70
2022-10-08T14:47:25.536Z,2.80
2022-10-08T14:49:52.208Z,4.03
2022-10-08T14:52:20.480Z,5.28
2022-10-08T14:54:47.098Z,4.35
2022-10-08T14:57:14.453Z,4.93
2022-10-08T14:59:41.296Z,3.72
2022-10-08T15:02:10.774Z,3.72
2022-10-08T15:04:37.768Z,2.97
2022-10-08T15:07:04.937Z,8.20
2022-10-08T15:09:31.776Z,1.10
2022-10-08T15:11:58.452Z,2.55
2022-10-08T15:14:25.242Z,7.00
2022-10-08T15:16:51.928Z,5.63
2022-10-08T15:19:23.315Z,6.80
2022-10-08T15:21:51.087Z,4.47
2022-10-08T15:24:17.845Z,4.18
2022-10-08T15:26:44.476Z,2.88
2022-10-08T15:29:11.687Z,4.90
2022-10-08T15:31:38.429Z,4.93
2022-10-08T15:34:05.140Z,3.78
2022-10-08T15:36:36.119Z,5.43
2022-10-08T15:39:11.636Z,4.00
2022-10-08T15:41:40.295Z,4.78
2022-10-08T15:44:25.310Z,3.00
2022-10-08T15:47:01.971Z,3.92
2022-10-08T15:49:31.534Z,2.97
2022-10-08T15:51:58.711Z,6.32
2022-10-08T15:54:25.733Z,5.57
2022-10-08T15:56:52.472Z,5.82
2022-10-08T15:59:19.534Z,5.03
2022-10-08T16:01:46.249Z,4.68
2022-10-08T16:04:13.709Z,3.47
2022-10-08T16:06:45.441Z,5.05
2022-10-08T16:09:16.886Z,3.20
2022-10-08T16:11:44.799Z,3.47
2022-10-08T16:14:14.442Z,6.97
2022-10-08T16:16:41.383Z,4.40
2022-10-08T16:19:12.574Z,4.68
2022-10-08T16:21:39.936Z,2.00
2022-10-08T16:24:06.699Z,4.57
2022-10-08T16:26:35.412Z,4.47
2022-10-08T16:29:05.563Z,3.35
2022-10-08T16:31:33.413Z,3.30
2022-10-08T16:34:08.068Z,5.38
2022-10-08T16:36:37.148Z,5.22
2022-10-08T16:39:06.138Z,3.83
2022-10-08T16:41:34.954Z,5.28
2022-10-08T16:44:12.634Z,5.40
2022-10-08T16:46:42.875Z,6.15
2022-10-08T16:49:25.714Z,10.70
2022-10-08T16:52:01.231Z,5.05
2022-10-08T16:54:28.547Z,74.57
2022-10-08T16:56:55.408Z,51.53
2022-10-08T16:59:24.282Z,26.40
2022-10-08T17:01:53.536Z,15.65
2022-10-08T17:04:21.802Z,10.10
2022-10-08T17:06:48.951Z,10.18
2022-10-08T17:09:15.765Z,7.43
2022-10-08T17:11:42.493Z,10.13
2022-10-08T17:14:11.533Z,12.32
2022-10-08T17:16:39.718Z,17.08
2022-10-08T17:19:06.572Z,19.33
2022-10-08T17:21:34.858Z,16.98
2022-10-08T17:24:02.566Z,17.60
2022-10-08T17:26:30.403Z,30.50
2022-10-08T17:28:57.919Z,47.08
2022-10-08T17:31:28.837Z,52.00
2022-10-08T17:33:55.505Z,24.58
2022-10-08T17:36:27.429Z,18.17
2022-10-08T17:41:31.098Z,13.77
2022-10-08T17:44:00.586Z,13.98
2022-10-08T17:46:29.435Z,24.52
2022-10-08T17:48:56.376Z,16.95
2022-10-08T17:51:24.870Z,15.73
2022-10-08T17:53:57.346Z,12.35
2022-10-08T17:56:24.492Z,10.20
2022-10-08T17:58:52.353Z,9.00
2022-10-08T18:01:31.032Z,10.43
2022-10-08T18:04:05.117Z,9.68
2022-10-08T18:06:33.405Z,9.52
2022-10-08T18:09:02.274Z,12.32
2022-10-08T18:11:30.845Z,10.32
2022-10-08T18:13:57.717Z,10.45
2022-10-08T18:16:25.316Z,11.73
2022-10-08T18:18:52.098Z,14.77
2022-10-08T18:21:19.606Z,18.77
2022-10-08T18:23:47.162Z,18.27
2022-10-08T18:26:30.560Z,14.15
2022-10-08T18:28:59.850Z,10.57
2022-10-08T18:31:29.277Z,10.50
2022-10-08T18:33:58.814Z,12.07
2022-10-08T18:36:28.349Z,11.10
2022-10-08T18:39:00.945Z,13.60
2022-10-08T18:41:31.149Z,12.45
2022-10-08T18:44:02.847Z,19.48
2022-10-08T18:46:29.531Z,19.45
2022-10-08T18:48:56.815Z,19.98
2022-10-08T18:51:26.675Z,28.02
2022-10-08T18:53:54.818Z,32.78
2022-10-08T18:56:28.730Z,25.33
2022-10-08T18:59:02.877Z,23.38
2022-10-08T19:01:40.731Z,18.65
2022-10-08T19:04:12.615Z,18.15
2022-10-08T19:06:42.324Z,17.15
2022-10-08T19:09:09.052Z,16.58
2022-10-08T19:11:44.401Z,15.30
2022-10-08T19:14:14.015Z,16.10
2022-10-08T19:16:41.772Z,16.25
2022-10-08T19:19:14.838Z,16.52
2022-10-08T19:21:41.801Z,20.52
2022-10-08T19:24:12.606Z,19.95
2022-10-08T19:26:39.596Z,17.25
2022-10-08T19:29:06.268Z,14.38
2022-10-08T19:31:35.175Z,18.48
2022-10-08T19:34:05.872Z,21.00
2022-10-08T19:36:36.087Z,26.20
2022-10-08T19:39:14.881Z,32.78
2022-10-08T19:41:42.440Z,25.13
2022-10-08T19:44:09.544Z,20.45
2022-10-08T19:46:36.244Z,18.60
2022-10-08T19:49:05.157Z,14.65
2022-10-08T19:51:33.124Z,15.45
2022-10-08T19:54:00.869Z,12.48
2022-10-08T19:56:28.853Z,25.23
2022-10-08T19:58:56.032Z,18.15
2022-10-08T20:01:34.597Z,22.88
2022-10-08T20:04:03.016Z,19.95
2022-10-08T20:06:31.799Z,16.83
2022-10-08T20:09:01.019Z,21.60
2022-10-08T20:11:29.105Z,17.50
2022-10-08T20:13:56.217Z,19.65
2022-10-08T20:16:31.540Z,20.27
2022-10-08T20:19:03.974Z,18.42
2022-10-08T20:21:33.279Z,21.83
2022-10-08T20:24:00.361Z,20.42
2022-10-08T20:26:32.755Z,19.67
2022-10-08T20:29:03.568Z,19.77
2022-10-08T20:31:32.627Z,22.55
2022-10-08T20:34:02.892Z,15.52
2022-10-08T20:36:31.006Z,13.98
2022-10-08T20:38:58.189Z,15.90
2022-10-08T20:41:30.461Z,14.07
2022-10-08T20:44:00.690Z,23.40
2022-10-08T20:46:27.651Z,20.17
2022-10-08T20:48:54.725Z,24.27
2022-10-08T20:51:23.783Z,22.27
2022-10-08T20:53:59.254Z,26.80
2022-10-08T20:56:27.352Z,20.05
2022-10-08T20:58:55.211Z,17.48
2022-10-08T21:01:34.060Z,14.65
2022-10-08T21:04:04.489Z,16.13
2022-10-08T21:06:45.244Z,17.20
2022-10-08T21:09:12.658Z,16.02
2022-10-08T21:11:39.762Z,25.35
2022-10-08T21:14:09.471Z,17.63
2022-10-08T21:16:38.768Z,16.30
2022-10-08T21:19:09.822Z,13.73
2022-10-08T21:21:36.632Z,12.95
2022-10-08T21:24:04.650Z,14.02
2022-10-08T21:26:37.239Z,14.40
2022-10-08T21:29:07.226Z,13.52
2022-10-08T21:31:36.016Z,17.23
2022-10-08T21:34:06.345Z,14.55
2022-10-08T21:36:36.438Z,15.40
2022-10-08T21:39:05.409Z,19.42
2022-10-08T21:41:34.000Z,19.30
2022-10-08T21:44:02.952Z,22.15
2022-10-08T21:46:32.601Z,15.57
2022-10-08T21:49:10.966Z,11.68
2022-10-08T21:51:37.854Z,13.95
2022-10-08T21:54:06.574Z,15.90
2022-10-08T21:56:36.239Z,14.98
2022-10-08T21:59:05.389Z,16.83
2022-10-08T22:01:35.413Z,14.43
2022-10-08T22:04:08.390Z,14.77
2022-10-08T22:06:38.295Z,15.05
2022-10-08T22:09:07.273Z,13.02
2022-10-08T22:11:34.503Z,20.45
2022-10-08T22:14:05.865Z,19.70
2022-10-08T22:16:32.723Z,25.38
2022-10-08T22:18:59.895Z,20.83
2022-10-08T22:21:26.865Z,16.45
2022-10-08T22:23:54.072Z,17.20
2022-10-08T22:26:29.138Z,16.85
2022-10-08T22:28:56.359Z,13.70
2022-10-08T22:31:23.224Z,14.13
2022-10-08T22:33:50.083Z,15.75
2022-10-08T22:36:19.670Z,19.70
2022-10-08T22:38:46.581Z,20.77
2022-10-08T22:41:16.210Z,15.48
2022-10-08T22:43:44.699Z,13.90
2022-10-08T22:46:17.082Z,9.13
2022-10-08T22:48:44.548Z,10.65
2022-10-08T22:51:20.357Z,12.52
2022-10-08T22:53:47.904Z,11.20
2022-10-08T22:56:18.088Z,13.18
2022-10-08T22:58:45.848Z,15.85
2022-10-08T23:01:16.258Z,13.82
2022-10-08T23:03:43.395Z,14.98
2022-10-08T23:06:15.016Z,12.63
2022-10-08T23:08:42.562Z,12.95
2022-10-08T23:11:09.507Z,13.90
2022-10-08T23:13:37.191Z,14.60
2022-10-08T23:16:12.138Z,16.13
2022-10-08T23:18:40.974Z,13.10
2022-10-08T23:21:10.357Z,17.05
2022-10-08T23:23:36.988Z,13.40
2022-10-08T23:26:05.752Z,11.75
2022-10-08T23:28:34.567Z,12.95
2022-10-08T23:31:13.253Z,15.25
2022-10-08T23:33:42.157Z,18.40
2022-10-08T23:36:11.693Z,14.20
2022-10-08T23:38:39.271Z,15.48
2022-10-08T23:41:09.172Z,16.08
2022-10-08T23:43:38.318Z,16.77
2022-10-08T23:46:06.814Z,12.95
2022-10-08T23:48:33.737Z,14.43
2022-10-08T23:51:01.416Z,17.08
2022-10-08T23:53:28.555Z,17.42
2022-10-08T23:55:55.213Z,14.98
2022-10-08T23:58:21.839Z,16.02
